sensor_id;sensor_type;location;lat;lon;timestamp;pressure;altitude;pressure_sealevel;temperature;humidity
7918;BME280;4004;42.624;23.386;2023-03-23T00:00:52;94092.84;;;6.16;100.00
7918;BME280;4004;42.624;23.386;2023-03-23T00:03:21;94097.75;;;6.14;100.00
7918;BME280;4004;42.624;23.386;2023-03-23T00:05:50;94089.28;;;6.12;100.00
7918;BME280;4004;42.624;23.386;2023-03-23T00:08:17;94093.50;;;6.13;100.00
7918;BME280;4004;42.624;23.386;2023-03-23T00:10:48;94099.75;;;6.17;100.00
7918;BME280;4004;42.624;23.386;2023-03-23T00:13:15;94096.09;;;6.22;100.00
7918;BME280;4004;42.624;23.386;2023-03-23T00:15:44;94097.41;;;6.16;100.00
7918;BME280;4004;42.624;23.386;2023-03-23T00:18:14;94102.31;;;6.14;100.00
7918;BME280;4004;42.624;23.386;2023-03-23T00:20:51;94098.38;;;6.11;100.00
7918;BME280;4004;42.624;23.386;2023-03-23T00:23:19;94098.78;;;6.01;100.00
7918;BME280;4004;42.624;23.386;2023-03-23T00:25:46;94101.88;;;5.82;100.00
7918;BME280;4004;42.624;23.386;2023-03-23T00:28:14;94108.91;;;5.87;100.00
7918;BME280;4004;42.624;23.386;2023-03-23T00:30:41;94106.38;;;5.90;100.00
7918;BME280;4004;42.624;23.386;2023-03-23T00:33:11;94117.69;;;5.87;100.00
7918;BME280;4004;42.624;23.386;2023-03-23T00:35:40;94113.59;;;5.90;100.00
7918;BME280;4004;42.624;23.386;2023-03-23T00:38:08;94110.94;;;5.90;100.00
7918;BME280;4004;42.624;23.386;2023-03-23T00:40:35;94131.16;;;5.91;100.00
7918;BME280;4004;42.624;23.386;2023-03-23T00:43:03;94127.41;;;5.92;100.00
7918;BME280;4004;42.624;23.386;2023-03-23T00:45:30;94129.13;;;5.96;100.00
7918;BME280;4004;42.624;23.386;2023-03-23T00:47:57;94131.00;;;5.96;100.00
7918;BME280;4004;42.624;23.386;2023-03-23T00:50:27;94135.47;;;5.83;100.00
7918;BME280;4004;42.624;23.386;2023-03-23T00:52:54;94128.69;;;5.86;100.00
7918;BME280;4004;42.624;23.386;2023-03-23T00:55:24;94131.34;;;5.86;100.00
7918;BME280;4004;42.624;23.386;2023-03-23T00:57:51;94135.22;;;5.97;100.00
7918;BME280;4004;42.624;23.386;2023-03-23T01:00:19;94127.03;;;6.02;100.00
7918;BME280;4004;42.624;23.386;2023-03-23T01:02:47;94132.81;;;6.04;100.00
7918;BME280;4004;42.624;23.386;2023-03-23T01:05:14;94127.47;;;6.04;100.00
7918;BME280;4004;42.624;23.386;2023-03-23T01:07:41;94128.41;;;6.08;100.00
7918;BME280;4004;42.624;23.386;2023-03-23T01:10:11;94130.09;;;6.13;100.00
7918;BME280;4004;42.624;23.386;2023-03-23T01:12:43;94123.66;;;6.14;100.00
7918;BME280;4004;42.624;23.386;2023-03-23T01:15:14;94131.13;;;6.20;100.00
7918;BME280;4004;42.624;23.386;2023-03-23T01:17:41;94123.25;;;6.24;100.00
7918;BME280;4004;42.624;23.386;2023-03-23T01:20:09;94121.34;;;6.25;100.00
7918;BME280;4004;42.624;23.386;2023-03-23T01:22:37;94128.28;;;6.38;100.00
7918;BME280;4004;42.624;23.386;2023-03-23T01:25:04;94127.13;;;6.48;100.00
7918;BME280;4004;42.624;23.386;2023-03-23T01:27:31;94123.16;;;6.54;100.00
7918;BME280;4004;42.624;23.386;2023-03-23T01:29:59;94108.34;;;6.56;100.00
7918;BME280;4004;42.624;23.386;2023-03-23T01:32:26;94110.81;;;6.61;100.00
7918;BME280;4004;42.624;23.386;2023-03-23T01:34:53;94106.59;;;6.73;100.00
7918;BME280;4004;42.624;23.386;2023-03-23T01:37:20;94096.59;;;6.82;100.00
7918;BME280;4004;42.624;23.386;2023-03-23T01:39:51;94105.28;;;6.79;100.00
7918;BME280;4004;42.624;23.386;2023-03-23T01:42:18;94096.16;;;6.80;100.00
7918;BME280;4004;42.624;23.386;2023-03-23T01:48:08;94093.69;;;6.75;100.00
7918;BME280;4004;42.624;23.386;2023-03-23T01:50:43;94096.69;;;6.73;100.00
7918;BME280;4004;42.624;23.386;2023-03-23T01:53:13;94092.56;;;6.76;100.00
7918;BME280;4004;42.624;23.386;2023-03-23T01:55:41;94098.25;;;6.74;100.00
7918;BME280;4004;42.624;23.386;2023-03-23T01:58:14;94092.69;;;6.67;100.00
7918;BME280;4004;42.624;23.386;2023-03-23T02:00:41;94089.44;;;6.61;100.00
7918;BME280;4004;42.624;23.386;2023-03-23T02:03:11;94086.69;;;6.70;100.00
7918;BME280;4004;42.624;23.386;2023-03-23T02:05:40;94093.66;;;6.62;100.00
7918;BME280;4004;42.624;23.386;2023-03-23T02:08:08;94090.03;;;6.67;100.00
7918;BME280;4004;42.624;23.386;2023-03-23T02:10:37;94093.78;;;6.54;100.00
7918;BME280;4004;42.624;23.386;2023-03-23T02:13:06;94093.47;;;6.34;100.00
7918;BME280;4004;42.624;23.386;2023-03-23T02:15:40;94095.56;;;6.29;100.00
7918;BME280;4004;42.624;23.386;2023-03-23T02:18:20;94092.63;;;6.21;100.00
7918;BME280;4004;42.624;23.386;2023-03-23T02:21:14;94095.53;;;6.16;100.00
7918;BME280;4004;42.624;23.386;2023-03-23T02:24:03;94097.06;;;6.17;100.00
7918;BME280;4004;42.624;23.386;2023-03-23T02:26:47;94095.63;;;6.20;100.00
7918;BME280;4004;42.624;23.386;2023-03-23T02:29:52;94098.66;;;6.18;100.00
7918;BME280;4004;42.624;23.386;2023-03-23T02:32:39;94087.16;;;6.18;100.00
7918;BME280;4004;42.624;23.386;2023-03-23T02:35:11;94093.63;;;6.17;100.00
7918;BME280;4004;42.624;23.386;2023-03-23T02:37:42;94094.75;;;6.16;100.00
7918;BME280;4004;42.624;23.386;2023-03-23T02:40:14;94096.97;;;6.14;100.00
7918;BME280;4004;42.624;23.386;2023-03-23T02:42:46;94096.97;;;6.14;100.00
7918;BME280;4004;42.624;23.386;2023-03-23T02:45:15;94100.94;;;6.08;100.00
7918;BME280;4004;42.624;23.386;2023-03-23T02:47:45;94101.38;;;6.10;100.00
7918;BME280;4004;42.624;23.386;2023-03-23T02:50:15;94106.50;;;5.94;100.00
7918;BME280;4004;42.624;23.386;2023-03-23T02:52:44;94108.09;;;5.95;100.00
7918;BME280;4004;42.624;23.386;2023-03-23T02:55:13;94113.19;;;5.79;100.00
7918;BME280;4004;42.624;23.386;2023-03-23T02:57:41;94119.00;;;5.81;100.00
7918;BME280;4004;42.624;23.386;2023-03-23T03:00:13;94111.31;;;5.79;100.00
7918;BME280;4004;42.624;23.386;2023-03-23T03:02:43;94125.94;;;5.73;100.00
7918;BME280;4004;42.624;23.386;2023-03-23T03:05:21;94134.28;;;5.72;100.00
7918;BME280;4004;42.624;23.386;2023-03-23T03:08:00;94140.75;;;5.62;100.00
7918;BME280;4004;42.624;23.386;2023-03-23T03:10:32;94144.38;;;5.28;100.00
7918;BME280;4004;42.624;23.386;2023-03-23T03:13:06;94141.63;;;5.07;100.00
7918;BME280;4004;42.624;23.386;2023-03-23T03:15:40;94141.88;;;4.84;100.00
7918;BME280;4004;42.624;23.386;2023-03-23T03:18:11;94146.31;;;4.71;100.00
7918;BME280;4004;42.624;23.386;2023-03-23T03:20:45;94138.97;;;4.51;100.00
7918;BME280;4004;42.624;23.386;2023-03-23T03:23:14;94153.22;;;4.46;100.00
7918;BME280;4004;42.624;23.386;2023-03-23T03:25:43;94153.56;;;4.36;100.00
7918;BME280;4004;42.624;23.386;2023-03-23T03:28:15;94148.25;;;4.27;100.00
7918;BME280;4004;42.624;23.386;2023-03-23T03:30:45;94149.00;;;4.19;100.00
7918;BME280;4004;42.624;23.386;2023-03-23T03:33:13;94149.66;;;4.25;100.00
7918;BME280;4004;42.624;23.386;2023-03-23T03:35:42;94149.78;;;4.20;100.00
7918;BME280;4004;42.624;23.386;2023-03-23T03:38:10;94150.56;;;4.29;100.00
7918;BME280;4004;42.624;23.386;2023-03-23T03:40:38;94146.34;;;4.28;100.00
7918;BME280;4004;42.624;23.386;2023-03-23T03:43:05;94144.94;;;4.39;100.00
7918;BME280;4004;42.624;23.386;2023-03-23T03:45:33;94144.75;;;4.53;100.00
7918;BME280;4004;42.624;23.386;2023-03-23T03:48:00;94149.44;;;4.65;100.00
7918;BME280;4004;42.624;23.386;2023-03-23T03:50:27;94147.09;;;4.72;100.00
7918;BME280;4004;42.624;23.386;2023-03-23T03:52:55;94143.19;;;4.69;100.00
7918;BME280;4004;42.624;23.386;2023-03-23T03:55:22;94153.97;;;4.73;100.00
7918;BME280;4004;42.624;23.386;2023-03-23T03:57:49;94152.38;;;4.89;100.00
7918;BME280;4004;42.624;23.386;2023-03-23T04:00:16;94146.22;;;4.89;100.00
7918;BME280;4004;42.624;23.386;2023-03-23T04:02:45;94145.44;;;4.97;100.00
7918;BME280;4004;42.624;23.386;2023-03-23T04:05:17;94137.41;;;5.06;100.00
7918;BME280;4004;42.624;23.386;2023-03-23T04:07:44;94134.88;;;5.18;100.00
7918;BME280;4004;42.624;23.386;2023-03-23T04:10:19;94142.81;;;5.27;100.00
7918;BME280;4004;42.624;23.386;2023-03-23T04:12:47;94146.41;;;5.31;100.00
7918;BME280;4004;42.624;23.386;2023-03-23T04:15:14;94143.41;;;5.32;100.00
7918;BME280;4004;42.624;23.386;2023-03-23T04:17:41;94144.66;;;5.35;100.00
7918;BME280;4004;42.624;23.386;2023-03-23T04:20:09;94143.69;;;5.39;100.00
7918;BME280;4004;42.624;23.386;2023-03-23T04:22:41;94143.84;;;5.43;100.00
7918;BME280;4004;42.624;23.386;2023-03-23T04:25:10;94150.66;;;5.32;100.00
7918;BME280;4004;42.624;23.386;2023-03-23T04:27:39;94146.25;;;5.36;100.00
7918;BME280;4004;42.624;23.386;2023-03-23T04:30:09;94140.56;;;5.37;100.00
7918;BME280;4004;42.624;23.386;2023-03-23T04:32:36;94143.06;;;5.43;100.00
7918;BME280;4004;42.624;23.386;2023-03-23T04:35:08;94147.13;;;5.40;100.00
7918;BME280;4004;42.624;23.386;2023-03-23T04:37:34;94141.44;;;5.50;100.00
7918;BME280;4004;42.624;23.386;2023-03-23T04:40:02;94140.94;;;5.57;100.00
7918;BME280;4004;42.624;23.386;2023-03-23T04:42:39;94142.38;;;5.54;100.00
7918;BME280;4004;42.624;23.386;2023-03-23T04:45:07;94147.47;;;5.68;100.00
7918;BME280;4004;42.624;23.386;2023-03-23T04:47:36;94144.16;;;5.71;100.00
7918;BME280;4004;42.624;23.386;2023-03-23T04:50:07;94151.19;;;5.76;100.00
7918;BME280;4004;42.624;23.386;2023-03-23T04:52:35;94151.00;;;5.81;100.00
7918;BME280;4004;42.624;23.386;2023-03-23T04:55:07;94156.16;;;5.86;100.00
7918;BME280;4004;42.624;23.386;2023-03-23T04:57:35;94157.69;;;5.96;100.00
7918;BME280;4004;42.624;23.386;2023-03-23T05:00:04;94157.69;;;5.96;100.00
7918;BME280;4004;42.624;23.386;2023-03-23T05:02:34;94160.03;;;5.89;100.00
7918;BME280;4004;42.624;23.386;2023-03-23T05:05:01;94163.22;;;5.82;100.00
7918;BME280;4004;42.624;23.386;2023-03-23T05:07:28;94163.47;;;5.68;100.00
7918;BME280;4004;42.624;23.386;2023-03-23T05:09:55;94165.06;;;5.69;100.00
7918;BME280;4004;42.624;23.386;2023-03-23T05:12:21;94162.03;;;5.71;100.00
7918;BME280;4004;42.624;23.386;2023-03-23T05:14:48;94172.91;;;5.66;100.00
7918;BME280;4004;42.624;23.386;2023-03-23T05:17:16;94170.56;;;5.64;100.00
7918;BME280;4004;42.624;23.386;2023-03-23T05:19:44;94177.78;;;5.64;100.00
7918;BME280;4004;42.624;23.386;2023-03-23T05:22:13;94173.81;;;5.70;100.00
7918;BME280;4004;42.624;23.386;2023-03-23T05:24:40;94161.72;;;5.72;100.00
7918;BME280;4004;42.624;23.386;2023-03-23T05:27:08;94167.41;;;6.00;100.00
7918;BME280;4004;42.624;23.386;2023-03-23T05:29:35;94174.69;;;6.12;100.00
7918;BME280;4004;42.624;23.386;2023-03-23T05:32:02;94175.19;;;6.27;100.00
7918;BME280;4004;42.624;23.386;2023-03-23T05:34:31;94175.72;;;6.41;100.00
7918;BME280;4004;42.624;23.386;2023-03-23T05:36:58;94176.75;;;6.49;100.00
7918;BME280;4004;42.624;23.386;2023-03-23T05:39:26;94195.75;;;6.68;100.00
7918;BME280;4004;42.624;23.386;2023-03-23T05:41:53;94208.78;;;6.49;100.00
7918;BME280;4004;42.624;23.386;2023-03-23T05:44:21;94205.16;;;6.53;100.00
7918;BME280;4004;42.624;23.386;2023-03-23T05:46:48;94201.84;;;6.35;100.00
7918;BME280;4004;42.624;23.386;2023-03-23T05:49:15;94206.34;;;6.43;100.00
7918;BME280;4004;42.624;23.386;2023-03-23T05:51:43;94197.94;;;6.54;100.00
7918;BME280;4004;42.624;23.386;2023-03-23T05:54:11;94204.69;;;6.72;100.00
7918;BME280;4004;42.624;23.386;2023-03-23T05:56:38;94209.06;;;6.89;100.00
7918;BME280;4004;42.624;23.386;2023-03-23T05:59:05;94205.47;;;7.06;100.00
7918;BME280;4004;42.624;23.386;2023-03-23T06:01:32;94212.75;;;7.30;100.00
7918;BME280;4004;42.624;23.386;2023-03-23T06:03:58;94200.09;;;7.52;100.00
7918;BME280;4004;42.624;23.386;2023-03-23T06:06:25;94209.22;;;7.75;100.00
7918;BME280;4004;42.624;23.386;2023-03-23T06:08:53;94216.03;;;7.97;100.00
7918;BME280;4004;42.624;23.386;2023-03-23T06:11:20;94203.50;;;8.14;100.00
7918;BME280;4004;42.624;23.386;2023-03-23T06:13:47;94205.63;;;8.45;100.00
7918;BME280;4004;42.624;23.386;2023-03-23T06:16:14;94212.13;;;8.72;100.00
7918;BME280;4004;42.624;23.386;2023-03-23T06:18:40;94214.75;;;8.84;100.00
7918;BME280;4004;42.624;23.386;2023-03-23T06:21:08;94217.56;;;8.76;100.00
7918;BME280;4004;42.624;23.386;2023-03-23T06:23:35;94208.44;;;8.64;100.00
7918;BME280;4004;42.624;23.386;2023-03-23T06:26:06;94210.78;;;8.78;100.00
7918;BME280;4004;42.624;23.386;2023-03-23T06:28:33;94219.75;;;8.98;100.00
7918;BME280;4004;42.624;23.386;2023-03-23T06:31:00;94217.16;;;9.18;100.00
7918;BME280;4004;42.624;23.386;2023-03-23T06:33:30;94214.44;;;9.30;100.00
7918;BME280;4004;42.624;23.386;2023-03-23T06:35:57;94221.38;;;9.63;100.00
7918;BME280;4004;42.624;23.386;2023-03-23T06:38:25;94219.13;;;9.96;100.00
7918;BME280;4004;42.624;23.386;2023-03-23T06:40:52;94225.28;;;10.48;100.00
7918;BME280;4004;42.624;23.386;2023-03-23T06:43:21;94225.53;;;10.78;100.00
7918;BME280;4004;42.624;23.386;2023-03-23T06:45:48;94236.72;;;10.81;99.61
7918;BME280;4004;42.624;23.386;2023-03-23T06:48:15;94244.22;;;11.10;100.00
7918;BME280;4004;42.624;23.386;2023-03-23T06:50:43;94236.59;;;11.35;98.69
7918;BME280;4004;42.624;23.386;2023-03-23T06:53:10;94242.59;;;11.48;97.03
7918;BME280;4004;42.624;23.386;2023-03-23T06:55:37;94245.53;;;11.62;96.73
7918;BME280;4004;42.624;23.386;2023-03-23T06:58:04;94256.72;;;11.65;96.08
7918;BME280;4004;42.624;23.386;2023-03-23T07:00:33;94251.97;;;11.35;95.20
7918;BME280;4004;42.624;23.386;2023-03-23T07:03:00;94249.69;;;11.79;94.10
7918;BME280;4004;42.624;23.386;2023-03-23T07:05:27;94250.03;;;12.51;92.07
7918;BME280;4004;42.624;23.386;2023-03-23T07:07:54;94252.72;;;12.51;88.48
7918;BME280;4004;42.624;23.386;2023-03-23T07:10:21;94253.25;;;12.60;89.00
7918;BME280;4004;42.624;23.386;2023-03-23T07:12:48;94256.88;;;12.44;86.71
7918;BME280;4004;42.624;23.386;2023-03-23T07:15:15;94253.66;;;12.35;88.88
7918;BME280;4004;42.624;23.386;2023-03-23T07:17:43;94251.28;;;12.30;92.00
7918;BME280;4004;42.624;23.386;2023-03-23T07:20:11;94250.13;;;12.58;90.11
7918;BME280;4004;42.624;23.386;2023-03-23T07:22:39;94247.09;;;12.90;88.91
7918;BME280;4004;42.624;23.386;2023-03-23T07:25:06;94252.44;;;13.16;86.35
7918;BME280;4004;42.624;23.386;2023-03-23T07:27:34;94253.97;;;13.17;86.35
7918;BME280;4004;42.624;23.386;2023-03-23T07:30:01;94249.84;;;13.61;82.89
7918;BME280;4004;42.624;23.386;2023-03-23T07:32:28;94253.50;;;13.42;82.02
7918;BME280;4004;42.624;23.386;2023-03-23T07:34:56;94258.09;;;13.38;83.77
7918;BME280;4004;42.624;23.386;2023-03-23T07:37:23;94259.84;;;13.57;79.82
7918;BME280;4004;42.624;23.386;2023-03-23T07:39:50;94267.47;;;13.47;80.91
7918;BME280;4004;42.624;23.386;2023-03-23T07:42:17;94262.56;;;13.60;80.59
7918;BME280;4004;42.624;23.386;2023-03-23T07:44:44;94263.06;;;13.70;79.92
7918;BME280;4004;42.624;23.386;2023-03-23T07:47:10;94264.84;;;13.58;80.86
7918;BME280;4004;42.624;23.386;2023-03-23T07:49:37;94269.34;;;13.81;79.33
7918;BME280;4004;42.624;23.386;2023-03-23T07:52:06;94270.41;;;13.73;80.08
7918;BME280;4004;42.624;23.386;2023-03-23T07:54:33;94271.69;;;13.86;78.58
7918;BME280;4004;42.624;23.386;2023-03-23T07:57:00;94279.00;;;14.26;76.74
7918;BME280;4004;42.624;23.386;2023-03-23T07:59:26;94277.34;;;14.59;73.66
7918;BME280;4004;42.624;23.386;2023-03-23T08:01:53;94279.31;;;14.66;73.00
7918;BME280;4004;42.624;23.386;2023-03-23T08:04:20;94274.31;;;14.68;74.39
7918;BME280;4004;42.624;23.386;2023-03-23T08:06:47;94283.88;;;14.58;74.83
7918;BME280;4004;42.624;23.386;2023-03-23T08:09:15;94280.88;;;14.70;72.13
7918;BME280;4004;42.624;23.386;2023-03-23T08:11:42;94285.31;;;15.04;67.91
7918;BME280;4004;42.624;23.386;2023-03-23T08:14:09;94291.31;;;15.49;65.15
7918;BME280;4004;42.624;23.386;2023-03-23T08:16:35;94292.09;;;15.49;64.06
7918;BME280;4004;42.624;23.386;2023-03-23T08:19:02;94285.81;;;15.24;64.04
7918;BME280;4004;42.624;23.386;2023-03-23T08:21:30;94290.47;;;15.30;64.48
7918;BME280;4004;42.624;23.386;2023-03-23T08:23:56;94292.19;;;14.87;63.33
7918;BME280;4004;42.624;23.386;2023-03-23T08:26:25;94290.72;;;15.00;65.27
7918;BME280;4004;42.624;23.386;2023-03-23T08:28:51;94288.81;;;15.01;62.98
7918;BME280;4004;42.624;23.386;2023-03-23T08:31:18;94283.53;;;15.37;61.41
7918;BME280;4004;42.624;23.386;2023-03-23T08:33:45;94285.19;;;15.70;60.16
7918;BME280;4004;42.624;23.386;2023-03-23T08:36:12;94284.47;;;15.91;58.08
7918;BME280;4004;42.624;23.386;2023-03-23T08:38:39;94289.88;;;15.87;57.07
7918;BME280;4004;42.624;23.386;2023-03-23T08:41:06;94287.88;;;15.59;56.56
7918;BME280;4004;42.624;23.386;2023-03-23T08:43:35;94282.03;;;15.50;55.28
7918;BME280;4004;42.624;23.386;2023-03-23T08:46:03;94281.66;;;15.55;56.08
7918;BME280;4004;42.624;23.386;2023-03-23T08:48:34;94281.63;;;15.44;54.64
7918;BME280;4004;42.624;23.386;2023-03-23T08:51:02;94279.34;;;15.64;53.44
7918;BME280;4004;42.624;23.386;2023-03-23T08:53:29;94272.75;;;15.58;47.59
7918;BME280;4004;42.624;23.386;2023-03-23T08:56:02;94271.84;;;15.18;47.28
7918;BME280;4004;42.624;23.386;2023-03-23T08:58:29;94271.13;;;15.36;47.92
7918;BME280;4004;42.624;23.386;2023-03-23T09:00:57;94265.38;;;15.41;48.89
7918;BME280;4004;42.624;23.386;2023-03-23T09:03:24;94271.00;;;15.07;50.63
7918;BME280;4004;42.624;23.386;2023-03-23T09:05:51;94270.25;;;14.44;51.82
7918;BME280;4004;42.624;23.386;2023-03-23T09:08:19;94272.00;;;14.22;51.81
7918;BME280;4004;42.624;23.386;2023-03-23T09:10:46;94272.78;;;14.22;51.55
7918;BME280;4004;42.624;23.386;2023-03-23T09:13:14;94271.84;;;14.52;49.05
7918;BME280;4004;42.624;23.386;2023-03-23T09:15:41;94273.09;;;14.62;49.39
7918;BME280;4004;42.624;23.386;2023-03-23T09:18:09;94263.66;;;15.04;48.50
7918;BME280;4004;42.624;23.386;2023-03-23T09:20:36;94268.06;;;15.44;47.90
7918;BME280;4004;42.624;23.386;2023-03-23T09:23:03;94274.69;;;15.54;47.37
7918;BME280;4004;42.624;23.386;2023-03-23T09:25:30;94265.69;;;15.25;47.82
7918;BME280;4004;42.624;23.386;2023-03-23T09:27:58;94262.00;;;14.81;47.59
7918;BME280;4004;42.624;23.386;2023-03-23T09:30:27;94256.09;;;14.13;48.89
7918;BME280;4004;42.624;23.386;2023-03-23T09:32:55;94260.47;;;13.84;50.36
7918;BME280;4004;42.624;23.386;2023-03-23T09:35:24;94253.91;;;13.85;50.71
7918;BME280;4004;42.624;23.386;2023-03-23T09:37:52;94248.19;;;13.94;51.57
7918;BME280;4004;42.624;23.386;2023-03-23T09:40:21;94258.09;;;14.20;51.36
7918;BME280;4004;42.624;23.386;2023-03-23T09:42:59;94252.63;;;14.13;51.15
7918;BME280;4004;42.624;23.386;2023-03-23T09:45:31;94251.00;;;14.04;51.09
7918;BME280;4004;42.624;23.386;2023-03-23T09:48:23;94255.53;;;13.93;51.10
7918;BME280;4004;42.624;23.386;2023-03-23T09:50:59;94251.91;;;13.75;52.09
7918;BME280;4004;42.624;23.386;2023-03-23T09:53:31;94255.25;;;13.61;53.09
7918;BME280;4004;42.624;23.386;2023-03-23T09:56:01;94250.03;;;13.11;53.09
7918;BME280;4004;42.624;23.386;2023-03-23T09:58:31;94243.59;;;12.89;53.58
7918;BME280;4004;42.624;23.386;2023-03-23T10:01:04;94245.25;;;12.97;54.41
7918;BME280;4004;42.624;23.386;2023-03-23T10:03:37;94239.25;;;13.11;53.27
7918;BME280;4004;42.624;23.386;2023-03-23T10:06:08;94245.94;;;13.21;53.82
7918;BME280;4004;42.624;23.386;2023-03-23T10:08:44;94253.06;;;13.06;52.86
7918;BME280;4004;42.624;23.386;2023-03-23T10:11:16;94242.16;;;12.95;52.42
7918;BME280;4004;42.624;23.386;2023-03-23T10:13:56;94233.56;;;12.86;53.85
7918;BME280;4004;42.624;23.386;2023-03-23T10:16:30;94240.47;;;12.83;54.60
7918;BME280;4004;42.624;23.386;2023-03-23T10:19:03;94232.38;;;12.83;53.82
7918;BME280;4004;42.624;23.386;2023-03-23T10:21:39;94226.50;;;12.78;55.25
7918;BME280;4004;42.624;23.386;2023-03-23T10:24:09;94234.72;;;12.85;55.00
7918;BME280;4004;42.624;23.386;2023-03-23T10:26:44;94232.91;;;12.96;55.06
7918;BME280;4004;42.624;23.386;2023-03-23T10:29:16;94235.50;;;12.89;54.84
7918;BME280;4004;42.624;23.386;2023-03-23T10:31:47;94229.66;;;12.83;54.71
7918;BME280;4004;42.624;23.386;2023-03-23T10:34:19;94226.41;;;12.71;54.30
7918;BME280;4004;42.624;23.386;2023-03-23T10:36:56;94218.00;;;12.76;53.09
7918;BME280;4004;42.624;23.386;2023-03-23T10:39:29;94217.28;;;12.79;53.33
7918;BME280;4004;42.624;23.386;2023-03-23T10:42:00;94216.13;;;12.80;54.18
7918;BME280;4004;42.624;23.386;2023-03-23T10:44:32;94221.94;;;12.82;54.17
7918;BME280;4004;42.624;23.386;2023-03-23T10:47:01;94218.78;;;12.76;54.24
7918;BME280;4004;42.624;23.386;2023-03-23T10:49:34;94222.06;;;12.93;55.56
7918;BME280;4004;42.624;23.386;2023-03-23T10:52:15;94226.28;;;12.90;54.04
7918;BME280;4004;42.624;23.386;2023-03-23T10:54:50;94227.69;;;12.80;54.27
7918;BME280;4004;42.624;23.386;2023-03-23T10:57:23;94230.44;;;12.84;55.03
7918;BME280;4004;42.624;23.386;2023-03-23T10:59:58;94230.38;;;12.80;54.26
7918;BME280;4004;42.624;23.386;2023-03-23T11:02:25;94222.41;;;12.88;54.63
7918;BME280;4004;42.624;23.386;2023-03-23T11:05:01;94218.13;;;12.86;54.26
7918;BME280;4004;42.624;23.386;2023-03-23T11:07:32;94220.00;;;12.82;55.64
7918;BME280;4004;42.624;23.386;2023-03-23T11:10:07;94214.63;;;12.82;54.32
7918;BME280;4004;42.624;23.386;2023-03-23T11:12:44;94216.34;;;12.98;55.91
7918;BME280;4004;42.624;23.386;2023-03-23T11:15:26;94208.50;;;13.19;54.08
7918;BME280;4004;42.624;23.386;2023-03-23T11:17:59;94205.94;;;13.30;52.54
7918;BME280;4004;42.624;23.386;2023-03-23T11:20:27;94199.84;;;13.37;52.08
7918;BME280;4004;42.624;23.386;2023-03-23T11:22:57;94187.88;;;13.38;52.15
7918;BME280;4004;42.624;23.386;2023-03-23T11:25:24;94193.75;;;13.47;52.66
7918;BME280;4004;42.624;23.386;2023-03-23T11:27:52;94189.63;;;13.57;52.37
7918;BME280;4004;42.624;23.386;2023-03-23T11:30:23;94194.00;;;13.76;52.22
7918;BME280;4004;42.624;23.386;2023-03-23T11:32:51;94189.41;;;13.80;52.58
7918;BME280;4004;42.624;23.386;2023-03-23T11:35:21;94187.88;;;13.79;52.58
7918;BME280;4004;42.624;23.386;2023-03-23T11:37:51;94187.78;;;13.72;52.11
7918;BME280;4004;42.624;23.386;2023-03-23T11:40:22;94174.19;;;13.57;52.78
7918;BME280;4004;42.624;23.386;2023-03-23T11:42:57;94175.19;;;13.42;52.32
7918;BME280;4004;42.624;23.386;2023-03-23T11:45:32;94172.84;;;13.37;52.36
7918;BME280;4004;42.624;23.386;2023-03-23T11:48:06;94165.09;;;13.35;52.16
7918;BME280;4004;42.624;23.386;2023-03-23T11:50:48;94172.06;;;13.36;51.87
7918;BME280;4004;42.624;23.386;2023-03-23T11:53:23;94163.09;;;13.29;51.69
7918;BME280;4004;42.624;23.386;2023-03-23T11:56:03;94164.75;;;13.37;51.17
7918;BME280;4004;42.624;23.386;2023-03-23T11:58:31;94159.81;;;13.46;52.40
7918;BME280;4004;42.624;23.386;2023-03-23T12:01:02;94168.97;;;13.38;50.94
7918;BME280;4004;42.624;23.386;2023-03-23T12:03:56;94156.59;;;13.33;50.63
7918;BME280;4004;42.624;23.386;2023-03-23T12:06:32;94154.75;;;13.41;51.53
7918;BME280;4004;42.624;23.386;2023-03-23T12:09:11;94158.94;;;13.38;51.96
7918;BME280;4004;42.624;23.386;2023-03-23T12:11:49;94164.31;;;13.35;51.61
7918;BME280;4004;42.624;23.386;2023-03-23T12:14:22;94160.41;;;13.29;51.85
7918;BME280;4004;42.624;23.386;2023-03-23T12:17:03;94151.97;;;13.34;53.09
7918;BME280;4004;42.624;23.386;2023-03-23T12:19:39;94147.91;;;13.54;51.62
7918;BME280;4004;42.624;23.386;2023-03-23T12:22:15;94154.50;;;13.60;51.11
7918;BME280;4004;42.624;23.386;2023-03-23T12:24:52;94147.56;;;13.59;53.04
7918;BME280;4004;42.624;23.386;2023-03-23T12:27:28;94163.44;;;13.64;51.34
7918;BME280;4004;42.624;23.386;2023-03-23T12:30:14;94160.31;;;13.62;51.86
7918;BME280;4004;42.624;23.386;2023-03-23T12:32:52;94161.03;;;13.52;51.51
7918;BME280;4004;42.624;23.386;2023-03-23T12:35:31;94146.41;;;13.57;51.75
7918;BME280;4004;42.624;23.386;2023-03-23T12:38:23;94151.09;;;13.63;51.66
7918;BME280;4004;42.624;23.386;2023-03-23T12:41:08;94148.06;;;13.72;51.93
7918;BME280;4004;42.624;23.386;2023-03-23T12:43:48;94139.56;;;13.70;51.78
7918;BME280;4004;42.624;23.386;2023-03-23T12:46:26;94145.28;;;13.65;51.58
7918;BME280;4004;42.624;23.386;2023-03-23T12:49:00;94131.78;;;13.65;52.39
7918;BME280;4004;42.624;23.386;2023-03-23T12:51:32;94135.00;;;13.85;51.58
7918;BME280;4004;42.624;23.386;2023-03-23T12:54:08;94132.44;;;13.99;51.06
7918;BME280;4004;42.624;23.386;2023-03-23T12:56:43;94139.72;;;13.95;50.86
7918;BME280;4004;42.624;23.386;2023-03-23T12:59:21;94136.53;;;13.79;51.12
7918;BME280;4004;42.624;23.386;2023-03-23T13:01:54;94130.00;;;13.83;51.83
7918;BME280;4004;42.624;23.386;2023-03-23T13:04:26;94126.53;;;13.83;51.50
7918;BME280;4004;42.624;23.386;2023-03-23T13:06:54;94130.41;;;13.85;51.96
7918;BME280;4004;42.624;23.386;2023-03-23T13:09:27;94135.75;;;13.78;52.22
7918;BME280;4004;42.624;23.386;2023-03-23T13:11:57;94123.75;;;13.72;51.60
7918;BME280;4004;42.624;23.386;2023-03-23T13:14:35;94127.25;;;13.76;51.83
7918;BME280;4004;42.624;23.386;2023-03-23T13:17:14;94123.75;;;13.76;51.43
7918;BME280;4004;42.624;23.386;2023-03-23T13:23:00;94115.31;;;13.81;51.31
7918;BME280;4004;42.624;23.386;2023-03-23T13:25:42;94117.22;;;13.80;52.16
7918;BME280;4004;42.624;23.386;2023-03-23T13:28:15;94121.13;;;13.83;51.05
7918;BME280;4004;42.624;23.386;2023-03-23T13:30:54;94121.19;;;13.90;50.98
7918;BME280;4004;42.624;23.386;2023-03-23T13:33:22;94123.44;;;13.84;51.07